sensor_id;sensor_type;location;lat;lon;timestamp;temperature;humidity
5743;DHT22;2896;53.500;10.020;2022-10-16T00:00:29;13.80;1.00
5743;DHT22;2896;53.500;10.020;2022-10-16T00:02:56;13.80;1.00
5743;DHT22;2896;53.500;10.020;2022-10-16T00:05:23;13.80;99.90
5743;DHT22;2896;53.500;10.020;2022-10-16T00:07:51;13.80;99.90
5743;DHT22;2896;53.500;10.020;2022-10-16T00:10:18;13.90;99.90
5743;DHT22;2896;53.500;10.020;2022-10-16T00:12:44;13.90;99.90
5743;DHT22;2896;53.500;10.020;2022-10-16T00:15:11;13.90;99.90
5743;DHT22;2896;53.500;10.020;2022-10-16T00:17:38;13.80;99.90
5743;DHT22;2896;53.500;10.020;2022-10-16T00:20:05;13.80;99.90
5743;DHT22;2896;53.500;10.020;2022-10-16T00:22:33;13.80;99.90
5743;DHT22;2896;53.500;10.020;2022-10-16T00:25:01;13.80;99.90
5743;DHT22;2896;53.500;10.020;2022-10-16T00:27:27;13.80;99.90
5743;DHT22;2896;53.500;10.020;2022-10-16T00:29:54;13.80;99.90
5743;DHT22;2896;53.500;10.020;2022-10-16T00:32:21;13.70;99.90
5743;DHT22;2896;53.500;10.020;2022-10-16T00:34:47;13.70;99.90
5743;DHT22;2896;53.500;10.020;2022-10-16T00:37:14;13.60;99.90
5743;DHT22;2896;53.500;10.020;2022-10-16T00:39:41;13.60;99.90
5743;DHT22;2896;53.500;10.020;2022-10-16T00:42:14;13.50;99.90
5743;DHT22;2896;53.500;10.020;2022-10-16T00:44:44;13.50;99.90
5743;DHT22;2896;53.500;10.020;2022-10-16T00:47:12;13.40;99.90
5743;DHT22;2896;53.500;10.020;2022-10-16T00:49:40;13.40;99.90
5743;DHT22;2896;53.500;10.020;2022-10-16T00:52:07;13.40;99.90
5743;DHT22;2896;53.500;10.020;2022-10-16T00:54:34;13.30;99.90
5743;DHT22;2896;53.500;10.020;2022-10-16T00:57:02;13.30;99.90
5743;DHT22;2896;53.500;10.020;2022-10-16T00:59:34;13.30;99.90
5743;DHT22;2896;53.500;10.020;2022-10-16T01:02:02;13.30;99.90
5743;DHT22;2896;53.500;10.020;2022-10-16T01:04:33;13.30;99.90
5743;DHT22;2896;53.500;10.020;2022-10-16T01:07:08;13.30;99.90
5743;DHT22;2896;53.500;10.020;2022-10-16T01:09:43;13.20;99.90
5743;DHT22;2896;53.500;10.020;2022-10-16T01:12:16;13.20;99.90
5743;DHT22;2896;53.500;10.020;2022-10-16T01:14:51;13.10;99.90
5743;DHT22;2896;53.500;10.020;2022-10-16T01:17:22;13.10;99.90
5743;DHT22;2896;53.500;10.020;2022-10-16T01:20:03;13.10;99.90
5743;DHT22;2896;53.500;10.020;2022-10-16T01:22:39;13.20;99.90
5743;DHT22;2896;53.500;10.020;2022-10-16T01:25:11;13.20;99.90
5743;DHT22;2896;53.500;10.020;2022-10-16T01:27:45;13.10;99.90
5743;DHT22;2896;53.500;10.020;2022-10-16T01:30:18;13.10;99.90
5743;DHT22;2896;53.500;10.020;2022-10-16T01:32:50;13.10;99.90
5743;DHT22;2896;53.500;10.020;2022-10-16T01:35:22;13.00;99.90
5743;DHT22;2896;53.500;10.020;2022-10-16T01:37:55;13.00;99.90
5743;DHT22;2896;53.500;10.020;2022-10-16T01:40:25;12.90;99.90
5743;DHT22;2896;53.500;10.020;2022-10-16T01:42:58;12.90;99.90
5743;DHT22;2896;53.500;10.020;2022-10-16T01:45:28;12.90;99.90
5743;DHT22;2896;53.500;10.020;2022-10-16T01:47:56;12.80;99.90
5743;DHT22;2896;53.500;10.020;2022-10-16T01:50:24;12.70;99.90
5743;DHT22;2896;53.500;10.020;2022-10-16T01:52:55;12.70;99.90
5743;DHT22;2896;53.500;10.020;2022-10-16T01:55:27;12.80;99.90
5743;DHT22;2896;53.500;10.020;2022-10-16T01:57:58;12.70;99.90
5743;DHT22;2896;53.500;10.020;2022-10-16T02:00:27;12.80;99.90
5743;DHT22;2896;53.500;10.020;2022-10-16T02:02:57;12.70;99.90
5743;DHT22;2896;53.500;10.020;2022-10-16T02:05:27;12.70;99.90
5743;DHT22;2896;53.500;10.020;2022-10-16T02:07:55;12.70;99.90
5743;DHT22;2896;53.500;10.020;2022-10-16T02:10:22;12.70;99.90
5743;DHT22;2896;53.500;10.020;2022-10-16T02:12:53;12.70;99.90
5743;DHT22;2896;53.500;10.020;2022-10-16T02:15:22;12.70;99.90
5743;DHT22;2896;53.500;10.020;2022-10-16T02:17:48;12.70;99.90
5743;DHT22;2896;53.500;10.020;2022-10-16T02:20:15;12.70;99.90
5743;DHT22;2896;53.500;10.020;2022-10-16T02:22:45;12.70;99.90
5743;DHT22;2896;53.500;10.020;2022-10-16T02:25:16;12.60;99.90
5743;DHT22;2896;53.500;10.020;2022-10-16T02:27:50;12.60;99.90
5743;DHT22;2896;53.500;10.020;2022-10-16T02:30:24;12.50;99.90
5743;DHT22;2896;53.500;10.020;2022-10-16T02:32:52;12.60;99.90
5743;DHT22;2896;53.500;10.020;2022-10-16T02:35:21;12.50;99.90
5743;DHT22;2896;53.500;10.020;2022-10-16T02:37:49;12.50;99.90
5743;DHT22;2896;53.500;10.020;2022-10-16T02:40:17;12.40;99.90
5743;DHT22;2896;53.500;10.020;2022-10-16T02:42:44;12.30;99.90
5743;DHT22;2896;53.500;10.020;2022-10-16T02:45:11;12.30;99.90
5743;DHT22;2896;53.500;10.020;2022-10-16T02:47:39;12.30;99.90
5743;DHT22;2896;53.500;10.020;2022-10-16T02:50:06;12.30;99.90
5743;DHT22;2896;53.500;10.020;2022-10-16T02:52:33;12.20;99.90
5743;DHT22;2896;53.500;10.020;2022-10-16T02:54:59;12.30;99.90
5743;DHT22;2896;53.500;10.020;2022-10-16T02:57:27;12.20;99.90
5743;DHT22;2896;53.500;10.020;2022-10-16T02:59:53;12.10;99.90
5743;DHT22;2896;53.500;10.020;2022-10-16T03:02:20;12.10;99.90
5743;DHT22;2896;53.500;10.020;2022-10-16T03:04:48;12.10;99.90
5743;DHT22;2896;53.500;10.020;2022-10-16T03:07:14;12.00;99.90
5743;DHT22;2896;53.500;10.020;2022-10-16T03:09:41;12.00;99.90
5743;DHT22;2896;53.500;10.020;2022-10-16T03:12:08;11.90;99.90
5743;DHT22;2896;53.500;10.020;2022-10-16T03:14:34;11.90;99.90
5743;DHT22;2896;53.500;10.020;2022-10-16T03:17:01;11.90;99.90
5743;DHT22;2896;53.500;10.020;2022-10-16T03:19:27;11.80;99.90
5743;DHT22;2896;53.500;10.020;2022-10-16T03:21:56;11.70;99.90
5743;DHT22;2896;53.500;10.020;2022-10-16T03:24:22;11.70;99.90
5743;DHT22;2896;53.500;10.020;2022-10-16T03:26:49;11.70;99.90
5743;DHT22;2896;53.500;10.020;2022-10-16T03:29:15;11.60;99.90
5743;DHT22;2896;53.500;10.020;2022-10-16T03:31:42;11.60;99.90
5743;DHT22;2896;53.500;10.020;2022-10-16T03:34:09;11.60;99.90
5743;DHT22;2896;53.500;10.020;2022-10-16T03:36:35;11.60;99.90
5743;DHT22;2896;53.500;10.020;2022-10-16T03:39:03;11.60;1.00
5743;DHT22;2896;53.500;10.020;2022-10-16T03:41:30;11.50;1.00
5743;DHT22;2896;53.500;10.020;2022-10-16T03:43:56;11.50;1.00
5743;DHT22;2896;53.500;10.020;2022-10-16T03:46:23;11.50;1.00
5743;DHT22;2896;53.500;10.020;2022-10-16T03:48:50;11.40;1.00
5743;DHT22;2896;53.500;10.020;2022-10-16T03:51:16;11.50;1.00
5743;DHT22;2896;53.500;10.020;2022-10-16T03:53:43;11.50;1.00
5743;DHT22;2896;53.500;10.020;2022-10-16T03:56:11;11.50;1.00
5743;DHT22;2896;53.500;10.020;2022-10-16T03:58:37;11.50;1.00
5743;DHT22;2896;53.500;10.020;2022-10-16T04:01:04;11.50;1.00
5743;DHT22;2896;53.500;10.020;2022-10-16T04:03:30;11.40;1.00
5743;DHT22;2896;53.500;10.020;2022-10-16T04:05:57;11.50;1.00
5743;DHT22;2896;53.500;10.020;2022-10-16T04:08:24;11.50;1.00
5743;DHT22;2896;53.500;10.020;2022-10-16T04:10:50;11.50;1.00
5743;DHT22;2896;53.500;10.020;2022-10-16T04:13:18;11.40;1.00
5743;DHT22;2896;53.500;10.020;2022-10-16T04:15:45;11.40;1.00
5743;DHT22;2896;53.500;10.020;2022-10-16T04:18:12;11.40;1.00
5743;DHT22;2896;53.500;10.020;2022-10-16T04:20:39;11.40;1.00
5743;DHT22;2896;53.500;10.020;2022-10-16T04:23:05;11.30;1.00
5743;DHT22;2896;53.500;10.020;2022-10-16T04:25:32;11.30;1.00
5743;DHT22;2896;53.500;10.020;2022-10-16T04:27:59;11.30;1.00
5743;DHT22;2896;53.500;10.020;2022-10-16T04:30:26;11.30;1.00
5743;DHT22;2896;53.500;10.020;2022-10-16T04:32:53;11.20;1.00
5743;DHT22;2896;53.500;10.020;2022-10-16T04:35:21;11.30;1.00
5743;DHT22;2896;53.500;10.020;2022-10-16T04:37:47;11.30;1.00
5743;DHT22;2896;53.500;10.020;2022-10-16T04:40:14;11.40;1.00
5743;DHT22;2896;53.500;10.020;2022-10-16T04:42:41;11.40;1.00
5743;DHT22;2896;53.500;10.020;2022-10-16T04:45:08;11.40;1.00
5743;DHT22;2896;53.500;10.020;2022-10-16T04:47:36;11.30;1.00
5743;DHT22;2896;53.500;10.020;2022-10-16T04:50:03;11.30;1.00
5743;DHT22;2896;53.500;10.020;2022-10-16T04:52:30;11.30;1.00
5743;DHT22;2896;53.500;10.020;2022-10-16T04:54:57;11.30;1.00
5743;DHT22;2896;53.500;10.020;2022-10-16T04:57:27;11.30;1.00
5743;DHT22;2896;53.500;10.020;2022-10-16T04:59:53;11.30;1.00
5743;DHT22;2896;53.500;10.020;2022-10-16T05:02:20;11.30;1.00
5743;DHT22;2896;53.500;10.020;2022-10-16T05:04:48;11.20;1.00
5743;DHT22;2896;53.500;10.020;2022-10-16T05:07:15;11.30;1.00
5743;DHT22;2896;53.500;10.020;2022-10-16T05:09:41;11.20;11.60
5743;DHT22;2896;53.500;10.020;2022-10-16T05:12:08;11.30;52.30
5743;DHT22;2896;53.500;10.020;2022-10-16T05:14:35;11.30;13.20
5743;DHT22;2896;53.500;10.020;2022-10-16T05:17:01;11.20;6.70
5743;DHT22;2896;53.500;10.020;2022-10-16T05:19:28;11.10;40.50
5743;DHT22;2896;53.500;10.020;2022-10-16T05:21:56;11.20;95.50
5743;DHT22;2896;53.500;10.020;2022-10-16T05:24:22;11.20;99.90
5743;DHT22;2896;53.500;10.020;2022-10-16T05:26:50;11.20;99.90
5743;DHT22;2896;53.500;10.020;2022-10-16T05:29:16;11.20;99.90
5743;DHT22;2896;53.500;10.020;2022-10-16T05:31:43;11.20;99.90
5743;DHT22;2896;53.500;10.020;2022-10-16T05:34:09;11.10;99.90
5743;DHT22;2896;53.500;10.020;2022-10-16T05:36:36;11.20;99.90
5743;DHT22;2896;53.500;10.020;2022-10-16T05:39:04;11.10;99.90
5743;DHT22;2896;53.500;10.020;2022-10-16T05:41:31;11.10;99.90
5743;DHT22;2896;53.500;10.020;2022-10-16T05:43:58;11.10;99.90
5743;DHT22;2896;53.500;10.020;2022-10-16T05:46:24;11.10;99.90
5743;DHT22;2896;53.500;10.020;2022-10-16T05:48:52;11.20;99.90
5743;DHT22;2896;53.500;10.020;2022-10-16T05:51:18;11.20;99.90
5743;DHT22;2896;53.500;10.020;2022-10-16T05:53:45;11.10;99.90
5743;DHT22;2896;53.500;10.020;2022-10-16T05:56:13;11.20;99.90
5743;DHT22;2896;53.500;10.020;2022-10-16T05:58:40;11.20;1.00
5743;DHT22;2896;53.500;10.020;2022-10-16T06:01:10;11.20;1.00
5743;DHT22;2896;53.500;10.020;2022-10-16T06:03:37;11.20;1.00
5743;DHT22;2896;53.500;10.020;2022-10-16T06:06:08;11.20;1.00
5743;DHT22;2896;53.500;10.020;2022-10-16T06:08:35;11.30;1.00
5743;DHT22;2896;53.500;10.020;2022-10-16T06:11:02;11.30;1.00
5743;DHT22;2896;53.500;10.020;2022-10-16T06:13:31;11.30;1.00
5743;DHT22;2896;53.500;10.020;2022-10-16T06:15:59;11.30;1.00
5743;DHT22;2896;53.500;10.020;2022-10-16T06:18:27;11.40;1.00
5743;DHT22;2896;53.500;10.020;2022-10-16T06:20:54;11.40;1.00
5743;DHT22;2896;53.500;10.020;2022-10-16T06:23:21;11.40;1.00
5743;DHT22;2896;53.500;10.020;2022-10-16T06:25:47;11.50;1.00
5743;DHT22;2896;53.500;10.020;2022-10-16T06:28:14;11.40;1.00
5743;DHT22;2896;53.500;10.020;2022-10-16T06:30:43;11.50;1.00
5743;DHT22;2896;53.500;10.020;2022-10-16T06:33:09;11.60;1.00
5743;DHT22;2896;53.500;10.020;2022-10-16T06:35:36;11.60;1.00
5743;DHT22;2896;53.500;10.020;2022-10-16T06:38:03;11.50;1.00
5743;DHT22;2896;53.500;10.020;2022-10-16T06:40:29;11.60;1.00
5743;DHT22;2896;53.500;10.020;2022-10-16T06:42:56;11.60;1.00
5743;DHT22;2896;53.500;10.020;2022-10-16T06:45:23;11.60;1.00
5743;DHT22;2896;53.500;10.020;2022-10-16T06:47:51;11.70;1.00
5743;DHT22;2896;53.500;10.020;2022-10-16T06:50:17;11.70;48.10
5743;DHT22;2896;53.500;10.020;2022-10-16T06:52:44;11.70;99.90
5743;DHT22;2896;53.500;10.020;2022-10-16T06:55:10;11.90;99.90
5743;DHT22;2896;53.500;10.020;2022-10-16T06:57:37;11.90;99.90
5743;DHT22;2896;53.500;10.020;2022-10-16T07:00:05;12.10;99.90
5743;DHT22;2896;53.500;10.020;2022-10-16T07:02:31;12.20;99.90
5743;DHT22;2896;53.500;10.020;2022-10-16T07:05:01;12.30;1.00
5743;DHT22;2896;53.500;10.020;2022-10-16T07:07:28;12.40;1.00
5743;DHT22;2896;53.500;10.020;2022-10-16T07:09:55;12.60;1.00
5743;DHT22;2896;53.500;10.020;2022-10-16T07:12:21;12.70;99.90
5743;DHT22;2896;53.500;10.020;2022-10-16T07:14:48;12.90;99.90
5743;DHT22;2896;53.500;10.020;2022-10-16T07:17:17;13.00;99.90
5743;DHT22;2896;53.500;10.020;2022-10-16T07:19:44;13.20;24.90
5743;DHT22;2896;53.500;10.020;2022-10-16T07:22:12;13.50;1.00
5743;DHT22;2896;53.500;10.020;2022-10-16T07:24:39;13.60;1.00
5743;DHT22;2896;53.500;10.020;2022-10-16T07:27:05;13.70;1.00
5743;DHT22;2896;53.500;10.020;2022-10-16T07:29:32;13.80;1.00
5743;DHT22;2896;53.500;10.020;2022-10-16T07:31:59;14.00;99.90
5743;DHT22;2896;53.500;10.020;2022-10-16T07:34:26;13.90;99.90
5743;DHT22;2896;53.500;10.020;2022-10-16T07:36:52;13.90;99.90
5743;DHT22;2896;53.500;10.020;2022-10-16T07:39:20;13.90;99.90
5743;DHT22;2896;53.500;10.020;2022-10-16T07:41:47;13.90;99.90
5743;DHT22;2896;53.500;10.020;2022-10-16T07:44:15;13.80;99.90
5743;DHT22;2896;53.500;10.020;2022-10-16T07:46:42;13.80;99.90
5743;DHT22;2896;53.500;10.020;2022-10-16T07:49:08;13.90;99.90
5743;DHT22;2896;53.500;10.020;2022-10-16T07:51:35;14.00;99.90
5743;DHT22;2896;53.500;10.020;2022-10-16T07:54:03;14.20;99.90
5743;DHT22;2896;53.500;10.020;2022-10-16T07:56:31;14.40;99.90
5743;DHT22;2896;53.500;10.020;2022-10-16T07:58:58;14.70;99.90
5743;DHT22;2896;53.500;10.020;2022-10-16T08:01:25;14.80;99.90
5743;DHT22;2896;53.500;10.020;2022-10-16T08:03:52;14.80;99.90
5743;DHT22;2896;53.500;10.020;2022-10-16T08:06:20;14.80;99.90
5743;DHT22;2896;53.500;10.020;2022-10-16T08:08:47;14.70;99.90
5743;DHT22;2896;53.500;10.020;2022-10-16T08:11:14;14.80;99.90
5743;DHT22;2896;53.500;10.020;2022-10-16T08:13:42;14.80;99.90
5743;DHT22;2896;53.500;10.020;2022-10-16T08:16:09;14.90;99.90
5743;DHT22;2896;53.500;10.020;2022-10-16T08:18:37;14.90;99.90
5743;DHT22;2896;53.500;10.020;2022-10-16T08:21:05;14.80;99.90
5743;DHT22;2896;53.500;10.020;2022-10-16T08:23:33;14.80;99.90
5743;DHT22;2896;53.500;10.020;2022-10-16T08:26:04;14.80;99.90
5743;DHT22;2896;53.500;10.020;2022-10-16T08:28:31;14.90;99.90
5743;DHT22;2896;53.500;10.020;2022-10-16T08:31:09;14.90;99.90
5743;DHT22;2896;53.500;10.020;2022-10-16T08:33:36;15.00;99.90
5743;DHT22;2896;53.500;10.020;2022-10-16T08:36:04;15.10;99.90
5743;DHT22;2896;53.500;10.020;2022-10-16T08:38:31;15.10;99.90
5743;DHT22;2896;53.500;10.020;2022-10-16T08:41:23;15.30;99.90
5743;DHT22;2896;53.500;10.020;2022-10-16T08:44:03;15.40;99.90
5743;DHT22;2896;53.500;10.020;2022-10-16T08:46:43;15.40;99.90
5743;DHT22;2896;53.500;10.020;2022-10-16T08:49:12;15.50;99.90
5743;DHT22;2896;53.500;10.020;2022-10-16T08:51:40;15.60;99.90
5743;DHT22;2896;53.500;10.020;2022-10-16T08:54:19;15.60;99.90
5743;DHT22;2896;53.500;10.020;2022-10-16T08:56:48;15.70;99.90
5743;DHT22;2896;53.500;10.020;2022-10-16T08:59:16;15.70;99.90
5743;DHT22;2896;53.500;10.020;2022-10-16T09:01:46;15.80;99.90
5743;DHT22;2896;53.500;10.020;2022-10-16T09:04:37;15.80;99.90
5743;DHT22;2896;53.500;10.020;2022-10-16T09:07:11;15.90;99.90
5743;DHT22;2896;53.500;10.020;2022-10-16T09:10:00;16.00;99.90
5743;DHT22;2896;53.500;10.020;2022-10-16T09:12:32;16.20;99.90
5743;DHT22;2896;53.500;10.020;2022-10-16T09:15:10;16.30;99.90
5743;DHT22;2896;53.500;10.020;2022-10-16T09:17:46;16.50;99.90
5743;DHT22;2896;53.500;10.020;2022-10-16T09:20:22;16.70;99.90
5743;DHT22;2896;53.500;10.020;2022-10-16T09:22:54;16.80;99.90
5743;DHT22;2896;53.500;10.020;2022-10-16T09:25:23;16.90;99.90
5743;DHT22;2896;53.500;10.020;2022-10-16T09:27:52;16.90;99.90
5743;DHT22;2896;53.500;10.020;2022-10-16T09:30:20;17.00;99.90
5743;DHT22;2896;53.500;10.020;2022-10-16T09:32:52;17.10;99.90
5743;DHT22;2896;53.500;10.020;2022-10-16T09:35:21;17.20;99.90
5743;DHT22;2896;53.500;10.020;2022-10-16T09:37:50;17.30;99.90
5743;DHT22;2896;53.500;10.020;2022-10-16T09:40:26;17.50;99.90
5743;DHT22;2896;53.500;10.020;2022-10-16T09:42:57;17.40;99.90
5743;DHT22;2896;53.500;10.020;2022-10-16T09:45:27;17.50;99.90
5743;DHT22;2896;53.500;10.020;2022-10-16T09:47:55;17.50;99.90
5743;DHT22;2896;53.500;10.020;2022-10-16T09:50:24;17.40;99.90
5743;DHT22;2896;53.500;10.020;2022-10-16T09:53:03;17.40;99.90
5743;DHT22;2896;53.500;10.020;2022-10-16T09:55:30;17.30;99.90
5743;DHT22;2896;53.500;10.020;2022-10-16T09:57:56;17.20;99.90
5743;DHT22;2896;53.500;10.020;2022-10-16T10:00:24;17.50;99.90
5743;DHT22;2896;53.500;10.020;2022-10-16T10:02:51;17.60;99.90
5743;DHT22;2896;53.500;10.020;2022-10-16T10:05:21;17.60;99.90
5743;DHT22;2896;53.500;10.020;2022-10-16T10:07:54;17.60;99.90
5743;DHT22;2896;53.500;10.020;2022-10-16T10:10:24;17.80;99.90
5743;DHT22;2896;53.500;10.020;2022-10-16T10:12:51;17.90;99.90
5743;DHT22;2896;53.500;10.020;2022-10-16T10:15:18;18.00;99.90
5743;DHT22;2896;53.500;10.020;2022-10-16T10:17:48;18.10;99.90
5743;DHT22;2896;53.500;10.020;2022-10-16T10:20:27;18.20;99.90
5743;DHT22;2896;53.500;10.020;2022-10-16T10:22:55;18.30;99.90
5743;DHT22;2896;53.500;10.020;2022-10-16T10:25:42;18.50;99.90
5743;DHT22;2896;53.500;10.020;2022-10-16T10:28:36;18.60;99.90
5743;DHT22;2896;53.500;10.020;2022-10-16T10:31:08;18.70;99.90
5743;DHT22;2896;53.500;10.020;2022-10-16T10:33:44;18.80;99.90
5743;DHT22;2896;53.500;10.020;2022-10-16T10:36:22;18.80;99.90
5743;DHT22;2896;53.500;10.020;2022-10-16T10:38:54;18.60;99.90
5743;DHT22;2896;53.500;10.020;2022-10-16T10:44:24;18.60;99.90
5743;DHT22;2896;53.500;10.020;2022-10-16T10:46:56;18.90;99.90
5743;DHT22;2896;53.500;10.020;2022-10-16T10:49:43;19.00;99.90
5743;DHT22;2896;53.500;10.020;2022-10-16T10:52:37;19.20;99.90
5743;DHT22;2896;53.500;10.020;2022-10-16T10:55:15;21.50;99.90
5743;DHT22;2896;53.500;10.020;2022-10-16T10:57:54;18.90;99.90
5743;DHT22;2896;53.500;10.020;2022-10-16T11:00:27;19.00;99.90
5743;DHT22;2896;53.500;10.020;2022-10-16T11:03:03;19.00;99.90
5743;DHT22;2896;53.500;10.020;2022-10-16T11:05:40;19.20;99.90
5743;DHT22;2896;53.500;10.020;2022-10-16T11:08:13;19.40;99.90
5743;DHT22;2896;53.500;10.020;2022-10-16T11:10:47;19.60;99.90
5743;DHT22;2896;53.500;10.020;2022-10-16T11:13:22;19.80;99.90
5743;DHT22;2896;53.500;10.020;2022-10-16T11:15:54;19.80;99.90
5743;DHT22;2896;53.500;10.020;2022-10-16T11:18:26;19.80;99.90
5743;DHT22;2896;53.500;10.020;2022-10-16T11:20:57;20.00;99.90
5743;DHT22;2896;53.500;10.020;2022-10-16T11:23:30;20.10;99.90
5743;DHT22;2896;53.500;10.020;2022-10-16T11:26:02;20.10;99.90
5743;DHT22;2896;53.500;10.020;2022-10-16T11:28:34;20.20;99.90
5743;DHT22;2896;53.500;10.020;2022-10-16T11:31:08;20.20;99.90
5743;DHT22;2896;53.500;10.020;2022-10-16T11:33:39;20.20;99.90
5743;DHT22;2896;53.500;10.020;2022-10-16T11:36:12;20.50;99.90
5743;DHT22;2896;53.500;10.020;2022-10-16T11:38:49;20.50;99.90
5743;DHT22;2896;53.500;10.020;2022-10-16T11:41:26;20.70;99.90
5743;DHT22;2896;53.500;10.020;2022-10-16T11:44:05;20.60;99.90
5743;DHT22;2896;53.500;10.020;2022-10-16T11:46:34;20.40;99.90
5743;DHT22;2896;53.500;10.020;2022-10-16T11:49:08;20.20;99.90
5743;DHT22;2896;53.500;10.020;2022-10-16T11:51:39;20.10;99.90
5743;DHT22;2896;53.500;10.020;2022-10-16T11:54:16;20.20;99.90
5743;DHT22;2896;53.500;10.020;2022-10-16T11:56:48;20.00;99.90
5743;DHT22;2896;53.500;10.020;2022-10-16T11:59:21;20.50;99.90
5743;DHT22;2896;53.500;10.020;2022-10-16T12:01:53;20.40;99.90
5743;DHT22;2896;53.500;10.020;2022-10-16T12:04:27;20.20;99.90
5743;DHT22;2896;53.500;10.020;2022-10-16T12:07:03;19.70;99.90
5743;DHT22;2896;53.500;10.020;2022-10-16T12:09:34;19.40;99.90
5743;DHT22;2896;53.500;10.020;2022-10-16T12:12:01;19.30;99.90
5743;DHT22;2896;53.500;10.020;2022-10-16T12:14:36;19.30;99.90
5743;DHT22;2896;53.500;10.020;2022-10-16T12:19:57;19.30;99.90
5743;DHT22;2896;53.500;10.020;2022-10-16T12:22:28;19.10;99.90
5743;DHT22;2896;53.500;10.020;2022-10-16T12:24:56;19.00;99.90
5743;DHT22;2896;53.500;10.020;2022-10-16T12:27:27;19.00;99.90
5743;DHT22;2896;53.500;10.020;2022-10-16T12:29:56;19.00;99.90
5743;DHT22;2896;53.500;10.020;2022-10-16T12:32:28;19.20;99.90
5743;DHT22;2896;53.500;10.020;2022-10-16T12:34:55;19.10;99.90
5743;DHT22;2896;53.500;10.020;2022-10-16T12:37:25;19.50;99.90
5743;DHT22;2896;53.500;10.020;2022-10-16T12:39:53;19.80;99.90
5743;DHT22;2896;53.500;10.020;2022-10-16T12:42:31;19.60;99.90
5743;DHT22;2896;53.500;10.020;2022-10-16T12:44:59;19.90;99.90
5743;DHT22;2896;53.500;10.020;2022-10-16T12:47:37;20.10;99.90
5743;DHT22;2896;53.500;10.020;2022-10-16T12:50:24;20.30;99.90
5743;DHT22;2896;53.500;10.020;2022-10-16T12:52:52;20.10;99.90
5743;DHT22;2896;53.500;10.020;2022-10-16T12:55:20;19.70;99.90
5743;DHT22;2896;53.500;10.020;2022-10-16T12:58:00;19.50;99.90
5743;DHT22;2896;53.500;10.020;2022-10-16T13:00:36;19.30;99.90
5743;DHT22;2896;53.500;10.020;2022-10-16T13:03:43;19.20;99.90
5743;DHT22;2896;53.500;10.020;2022-10-16T13:06:22;19.30;99.90
5743;DHT22;2896;53.500;10.020;2022-10-16T13:09:02;19.30;99.90
5743;DHT22;2896;53.500;10.020;2022-10-16T13:11:43;19.60;99.90
5743;DHT22;2896;53.500;10.020;2022-10-16T13:14:28;19.80;99.90
5743;DHT22;2896;53.500;10.020;2022-10-16T13:17:03;19.90;99.90
5743;DHT22;2896;53.500;10.020;2022-10-16T13:19:36;21.20;99.90
5743;DHT22;2896;53.500;10.020;2022-10-16T13:22:10;20.20;99.90
5743;DHT22;2896;53.500;10.020;2022-10-16T13:24:49;20.40;99.90
5743;DHT22;2896;53.500;10.020;2022-10-16T13:27:25;20.60;99.90
5743;DHT22;2896;53.500;10.020;2022-10-16T13:30:02;20.60;99.90
5743;DHT22;2896;53.500;10.020;2022-10-16T13:32:34;20.60;99.90
5743;DHT22;2896;53.500;10.020;2022-10-16T13:35:01;20.10;99.90
5743;DHT22;2896;53.500;10.020;2022-10-16T13:37:29;19.60;99.90
5743;DHT22;2896;53.500;10.020;2022-10-16T13:40:09;19.80;99.90
5743;DHT22;2896;53.500;10.020;2022-10-16T13:42:44;19.90;99.90
5743;DHT22;2896;53.500;10.020;2022-10-16T13:45:19;20.10;99.90
5743;DHT22;2896;53.500;10.020;2022-10-16T13:47:46;19.80;99.90
5743;DHT22;2896;53.500;10.020;2022-10-16T13:50:15;19.70;99.90
5743;DHT22;2896;53.500;10.020;2022-10-16T13:52:42;19.50;99.90
5743;DHT22;2896;53.500;10.020;2022-10-16T13:55:11;19.80;99.90
5743;DHT22;2896;53.500;10.020;2022-10-16T13:57:37;20.00;99.90
5743;DHT22;2896;53.500;10.020;2022-10-16T14:00:19;20.40;99.90
5743;DHT22;2896;53.500;10.020;2022-10-16T14:02:51;20.80;99.90
5743;DHT22;2896;53.500;10.020;2022-10-16T14:05:21;20.90;99.90
5743;DHT22;2896;53.500;10.020;2022-10-16T14:07:49;21.30;99.90
5743;DHT22;2896;53.500;10.020;2022-10-16T14:10:23;21.40;99.90
5743;DHT22;2896;53.500;10.020;2022-10-16T14:12:59;21.50;99.90
5743;DHT22;2896;53.500;10.020;2022-10-16T14:15:27;21.60;99.90
5743;DHT22;2896;53.500;10.020;2022-10-16T14:17:55;21.70;99.90
5743;DHT22;2896;53.500;10.020;2022-10-16T14:20:25;21.50;99.90
5743;DHT22;2896;53.500;10.020;2022-10-16T14:23:03;21.50;99.90
5743;DHT22;2896;53.500;10.020;2022-10-16T14:25:31;21.30;99.90
5743;DHT22;2896;53.500;10.020;2022-10-16T14:28:03;21.00;99.90
5743;DHT22;2896;53.500;10.020;2022-10-16T14:30:34;20.80;99.90
5743;DHT22;2896;53.500;10.020;2022-10-16T14:33:03;20.60;99.90
5743;DHT22;2896;53.500;10.020;2022-10-16T14:35:32;20.50;99.90
5743;DHT22;2896;53.500;10.020;2022-10-16T14:38:00;20.30;99.90
5743;DHT22;2896;53.500;10.020;2022-10-16T14:40:29;20.50;99.90
5743;DHT22;2896;53.500;10.020;2022-10-16T14:42:57;20.70;99.90
5743;DHT22;2896;53.500;10.020;2022-10-16T14:45:26;20.70;99.90
5743;DHT22;2896;53.500;10.020;2022-10-16T14:47:57;20.50;99.90
5743;DHT22;2896;53.500;10.020;2022-10-16T14:50:24;20.40;99.90
5743;DHT22;2896;53.500;10.020;2022-10-16T14:52:51;20.40;99.90
5743;DHT22;2896;53.500;10.020;2022-10-16T14:55:18;20.30;99.90
5743;DHT22;2896;53.500;10.020;2022-10-16T14:57:45;20.00;99.90
5743;DHT22;2896;53.500;10.020;2022-10-16T15:00:16;19.90;99.90
5743;DHT22;2896;53.500;10.020;2022-10-16T15:02:43;19.80;99.90
5743;DHT22;2896;53.500;10.020;2022-10-16T15:05:15;19.70;99.90
5743;DHT22;2896;53.500;10.020;2022-10-16T15:07:43;19.50;99.90
5743;DHT22;2896;53.500;10.020;2022-10-16T15:10:10;19.30;99.90
5743;DHT22;2896;53.500;10.020;2022-10-16T15:12:37;19.20;99.90
5743;DHT22;2896;53.500;10.020;2022-10-16T15:15:21;19.00;99.90
5743;DHT22;2896;53.500;10.020;2022-10-16T15:17:50;18.90;99.90
5743;DHT22;2896;53.500;10.020;2022-10-16T15:20:19;18.80;99.90
5743;DHT22;2896;53.500;10.020;2022-10-16T15:22:46;18.50;99.90
5743;DHT22;2896;53.500;10.020;2022-10-16T15:25:34;18.30;99.90
5743;DHT22;2896;53.500;10.020;2022-10-16T15:28:02;18.30;99.90
5743;DHT22;2896;53.500;10.020;2022-10-16T15:30:29;18.20;99.90
5743;DHT22;2896;53.500;10.020;2022-10-16T15:32:56;18.00;99.90
5743;DHT22;2896;53.500;10.020;2022-10-16T15:35:24;17.80;99.90
5743;DHT22;2896;53.500;10.020;2022-10-16T15:37:50;17.70;99.90
5743;DHT22;2896;53.500;10.020;2022-10-16T15:40:18;17.60;99.90
5743;DHT22;2896;53.500;10.020;2022-10-16T15:42:45;17.50;99.90
5743;DHT22;2896;53.500;10.020;2022-10-16T15:45:12;17.30;99.90
5743;DHT22;2896;53.500;10.020;2022-10-16T15:47:40;17.10;99.90
5743;DHT22;2896;53.500;10.020;2022-10-16T15:50:10;17.00;99.90
5743;DHT22;2896;53.500;10.020;2022-10-16T15:52:39;16.90;99.90
5743;DHT22;2896;53.500;10.020;2022-10-16T15:55:06;16.70;99.90
5743;DHT22;2896;53.500;10.020;2022-10-16T15:57:33;16.60;99.90
5743;DHT22;2896;53.500;10.020;2022-10-16T16:00:00;16.50;99.90
5743;DHT22;2896;53.500;10.020;2022-10-16T16:02:27;16.40;99.90
5743;DHT22;2896;53.500;10.020;2022-10-16T16:04:53;16.30;99.90
5743;DHT22;2896;53.500;10.020;2022-10-16T16:07:20;16.30;99.90
5743;DHT22;2896;53.500;10.020;2022-10-16T16:09:48;16.20;99.90
5743;DHT22;2896;53.500;10.020;2022-10-16T16:12:14;16.10;99.90